sensor_id;sensor_type;location;lat;lon;timestamp;temperature;humidity
47961;DHT22;33721;48.852;9.936;2023-12-20T00:02:22;5.40;99.90
47961;DHT22;33721;48.852;9.936;2023-12-20T00:04:48;5.50;99.90
47961;DHT22;33721;48.852;9.936;2023-12-20T00:07:15;5.50;99.90
47961;DHT22;33721;48.852;9.936;2023-12-20T00:09:41;5.50;99.90
47961;DHT22;33721;48.852;9.936;2023-12-20T00:12:07;5.50;99.90
47961;DHT22;33721;48.852;9.936;2023-12-20T00:14:32;5.50;99.90
47961;DHT22;33721;48.852;9.936;2023-12-20T00:16:58;5.60;99.90
47961;DHT22;33721;48.852;9.936;2023-12-20T00:19:23;5.60;99.90
47961;DHT22;33721;48.852;9.936;2023-12-20T00:21:49;5.50;99.90
47961;DHT22;33721;48.852;9.936;2023-12-20T00:24:15;5.50;99.90
47961;DHT22;33721;48.852;9.936;2023-12-20T00:26:40;5.50;99.90
47961;DHT22;33721;48.852;9.936;2023-12-20T00:29:06;5.50;99.90
47961;DHT22;33721;48.852;9.936;2023-12-20T00:31:31;5.50;99.90
47961;DHT22;33721;48.852;9.936;2023-12-20T00:33:57;5.50;99.90
47961;DHT22;33721;48.852;9.936;2023-12-20T00:36:23;5.50;99.90
47961;DHT22;33721;48.852;9.936;2023-12-20T00:38:48;5.50;99.90
47961;DHT22;33721;48.852;9.936;2023-12-20T00:41:15;5.50;99.90
47961;DHT22;33721;48.852;9.936;2023-12-20T00:43:41;5.40;99.90
47961;DHT22;33721;48.852;9.936;2023-12-20T00:46:07;5.40;99.90
47961;DHT22;33721;48.852;9.936;2023-12-20T00:48:33;5.40;99.90
47961;DHT22;33721;48.852;9.936;2023-12-20T00:50:58;5.30;99.90
47961;DHT22;33721;48.852;9.936;2023-12-20T00:53:24;5.30;99.90
47961;DHT22;33721;48.852;9.936;2023-12-20T00:55:50;5.30;99.90
47961;DHT22;33721;48.852;9.936;2023-12-20T00:58:15;5.30;99.90
47961;DHT22;33721;48.852;9.936;2023-12-20T01:00:41;5.30;99.90
47961;DHT22;33721;48.852;9.936;2023-12-20T01:03:08;5.30;99.90
47961;DHT22;33721;48.852;9.936;2023-12-20T01:05:34;5.30;99.90
47961;DHT22;33721;48.852;9.936;2023-12-20T01:07:59;5.30;99.90
47961;DHT22;33721;48.852;9.936;2023-12-20T01:10:25;5.30;99.90
47961;DHT22;33721;48.852;9.936;2023-12-20T01:12:53;5.20;99.90
47961;DHT22;33721;48.852;9.936;2023-12-20T01:15:19;5.20;99.90
47961;DHT22;33721;48.852;9.936;2023-12-20T01:17:44;5.20;99.90
47961;DHT22;33721;48.852;9.936;2023-12-20T01:20:10;5.20;99.90
47961;DHT22;33721;48.852;9.936;2023-12-20T01:22:36;5.10;99.90
47961;DHT22;33721;48.852;9.936;2023-12-20T01:25:02;5.10;99.90
47961;DHT22;33721;48.852;9.936;2023-12-20T01:27:28;5.10;99.90
47961;DHT22;33721;48.852;9.936;2023-12-20T01:29:54;5.10;99.90
47961;DHT22;33721;48.852;9.936;2023-12-20T01:32:19;5.10;99.90
47961;DHT22;33721;48.852;9.936;2023-12-20T01:34:45;5.10;99.90
47961;DHT22;33721;48.852;9.936;2023-12-20T01:37:11;5.10;99.90
47961;DHT22;33721;48.852;9.936;2023-12-20T01:39:36;5.10;99.90
47961;DHT22;33721;48.852;9.936;2023-12-20T01:42:02;5.10;99.90
47961;DHT22;33721;48.852;9.936;2023-12-20T01:44:27;5.20;99.90
47961;DHT22;33721;48.852;9.936;2023-12-20T01:46:54;5.10;99.90
47961;DHT22;33721;48.852;9.936;2023-12-20T01:49:20;5.10;99.90
47961;DHT22;33721;48.852;9.936;2023-12-20T01:51:46;5.10;99.90
47961;DHT22;33721;48.852;9.936;2023-12-20T01:54:12;5.00;99.90
47961;DHT22;33721;48.852;9.936;2023-12-20T01:56:39;5.00;99.90
47961;DHT22;33721;48.852;9.936;2023-12-20T01:59:06;5.00;99.90
47961;DHT22;33721;48.852;9.936;2023-12-20T02:01:32;5.00;99.90
47961;DHT22;33721;48.852;9.936;2023-12-20T02:03:58;5.00;99.90
47961;DHT22;33721;48.852;9.936;2023-12-20T02:06:29;5.00;99.90
47961;DHT22;33721;48.852;9.936;2023-12-20T02:08:55;5.00;99.90
47961;DHT22;33721;48.852;9.936;2023-12-20T02:11:22;5.10;99.90
47961;DHT22;33721;48.852;9.936;2023-12-20T02:13:47;5.00;99.90
47961;DHT22;33721;48.852;9.936;2023-12-20T02:16:13;5.10;99.90
47961;DHT22;33721;48.852;9.936;2023-12-20T02:18:39;5.10;99.90
47961;DHT22;33721;48.852;9.936;2023-12-20T02:21:05;5.10;99.90
47961;DHT22;33721;48.852;9.936;2023-12-20T02:23:31;5.10;99.90
47961;DHT22;33721;48.852;9.936;2023-12-20T02:25:57;5.10;99.90
47961;DHT22;33721;48.852;9.936;2023-12-20T02:28:22;5.10;99.90
47961;DHT22;33721;48.852;9.936;2023-12-20T02:30:48;5.10;99.90
47961;DHT22;33721;48.852;9.936;2023-12-20T02:33:15;5.10;99.90
47961;DHT22;33721;48.852;9.936;2023-12-20T02:35:41;5.10;99.90
47961;DHT22;33721;48.852;9.936;2023-12-20T02:38:06;5.00;99.90
47961;DHT22;33721;48.852;9.936;2023-12-20T02:40:32;5.10;99.90
47961;DHT22;33721;48.852;9.936;2023-12-20T02:42:58;5.10;99.90
47961;DHT22;33721;48.852;9.936;2023-12-20T02:45:23;5.00;99.90
47961;DHT22;33721;48.852;9.936;2023-12-20T02:47:49;5.00;99.90
47961;DHT22;33721;48.852;9.936;2023-12-20T02:50:15;5.00;99.90
47961;DHT22;33721;48.852;9.936;2023-12-20T02:52:40;5.00;99.90
47961;DHT22;33721;48.852;9.936;2023-12-20T02:55:06;4.90;99.90
47961;DHT22;33721;48.852;9.936;2023-12-20T02:57:32;4.90;99.90
47961;DHT22;33721;48.852;9.936;2023-12-20T02:59:58;4.90;99.90
47961;DHT22;33721;48.852;9.936;2023-12-20T03:02:24;4.90;99.90
47961;DHT22;33721;48.852;9.936;2023-12-20T03:04:50;5.00;99.90
47961;DHT22;33721;48.852;9.936;2023-12-20T03:07:15;4.90;99.90
47961;DHT22;33721;48.852;9.936;2023-12-20T03:09:41;5.00;99.90
47961;DHT22;33721;48.852;9.936;2023-12-20T03:12:06;4.90;99.90
47961;DHT22;33721;48.852;9.936;2023-12-20T03:14:32;4.90;99.90
47961;DHT22;33721;48.852;9.936;2023-12-20T03:16:58;4.90;99.90
47961;DHT22;33721;48.852;9.936;2023-12-20T03:19:23;4.90;99.90
47961;DHT22;33721;48.852;9.936;2023-12-20T03:21:49;4.90;99.90
47961;DHT22;33721;48.852;9.936;2023-12-20T03:24:14;4.90;99.90
47961;DHT22;33721;48.852;9.936;2023-12-20T03:26:40;4.90;99.90
47961;DHT22;33721;48.852;9.936;2023-12-20T03:29:06;4.90;99.90
47961;DHT22;33721;48.852;9.936;2023-12-20T03:31:31;4.90;99.90
47961;DHT22;33721;48.852;9.936;2023-12-20T03:33:57;4.90;99.90
47961;DHT22;33721;48.852;9.936;2023-12-20T03:36:22;4.90;99.90
47961;DHT22;33721;48.852;9.936;2023-12-20T03:38:48;4.90;99.90
47961;DHT22;33721;48.852;9.936;2023-12-20T03:41:14;5.00;99.90
47961;DHT22;33721;48.852;9.936;2023-12-20T03:43:39;5.00;99.90
47961;DHT22;33721;48.852;9.936;2023-12-20T03:46:05;5.00;99.90
47961;DHT22;33721;48.852;9.936;2023-12-20T03:48:32;5.00;99.90
47961;DHT22;33721;48.852;9.936;2023-12-20T03:50:58;5.00;99.90
47961;DHT22;33721;48.852;9.936;2023-12-20T03:53:24;5.00;99.90
47961;DHT22;33721;48.852;9.936;2023-12-20T03:55:49;5.00;99.90
47961;DHT22;33721;48.852;9.936;2023-12-20T03:58:15;5.00;99.90
47961;DHT22;33721;48.852;9.936;2023-12-20T04:00:42;5.00;99.90
47961;DHT22;33721;48.852;9.936;2023-12-20T04:03:07;4.90;99.90
47961;DHT22;33721;48.852;9.936;2023-12-20T04:05:33;4.90;99.90
47961;DHT22;33721;48.852;9.936;2023-12-20T04:08:01;4.90;99.90
47961;DHT22;33721;48.852;9.936;2023-12-20T04:10:26;4.80;99.90
47961;DHT22;33721;48.852;9.936;2023-12-20T04:12:53;4.80;99.90
47961;DHT22;33721;48.852;9.936;2023-12-20T04:15:18;4.80;99.90
47961;DHT22;33721;48.852;9.936;2023-12-20T04:17:44;4.80;99.90
47961;DHT22;33721;48.852;9.936;2023-12-20T04:20:10;4.70;99.90
47961;DHT22;33721;48.852;9.936;2023-12-20T04:22:35;4.70;99.90
47961;DHT22;33721;48.852;9.936;2023-12-20T04:25:01;4.70;99.90
47961;DHT22;33721;48.852;9.936;2023-12-20T04:27:27;4.60;99.90
47961;DHT22;33721;48.852;9.936;2023-12-20T04:29:53;4.60;99.90
47961;DHT22;33721;48.852;9.936;2023-12-20T04:32:19;4.60;99.90
47961;DHT22;33721;48.852;9.936;2023-12-20T04:34:44;4.60;99.90
47961;DHT22;33721;48.852;9.936;2023-12-20T04:37:10;4.60;99.90
47961;DHT22;33721;48.852;9.936;2023-12-20T04:39:35;4.60;99.90
47961;DHT22;33721;48.852;9.936;2023-12-20T04:42:01;4.60;99.90
47961;DHT22;33721;48.852;9.936;2023-12-20T04:44:27;4.60;99.90
47961;DHT22;33721;48.852;9.936;2023-12-20T04:46:52;4.50;99.90
47961;DHT22;33721;48.852;9.936;2023-12-20T04:49:18;4.50;99.90
47961;DHT22;33721;48.852;9.936;2023-12-20T04:51:44;4.50;99.90
47961;DHT22;33721;48.852;9.936;2023-12-20T04:54:09;4.50;99.90
47961;DHT22;33721;48.852;9.936;2023-12-20T04:56:36;4.50;99.90
47961;DHT22;33721;48.852;9.936;2023-12-20T04:59:01;4.50;99.90
47961;DHT22;33721;48.852;9.936;2023-12-20T05:01:27;4.50;99.90
47961;DHT22;33721;48.852;9.936;2023-12-20T05:03:53;4.50;99.90
47961;DHT22;33721;48.852;9.936;2023-12-20T05:06:18;4.50;99.90
47961;DHT22;33721;48.852;9.936;2023-12-20T05:08:44;4.40;99.90
47961;DHT22;33721;48.852;9.936;2023-12-20T05:11:10;4.50;99.90
47961;DHT22;33721;48.852;9.936;2023-12-20T05:13:35;4.50;99.90
47961;DHT22;33721;48.852;9.936;2023-12-20T05:16:01;4.50;99.90
47961;DHT22;33721;48.852;9.936;2023-12-20T05:18:26;4.40;99.90
47961;DHT22;33721;48.852;9.936;2023-12-20T05:20:52;4.40;99.90
47961;DHT22;33721;48.852;9.936;2023-12-20T05:23:18;4.40;99.90
47961;DHT22;33721;48.852;9.936;2023-12-20T05:25:45;4.40;99.90
47961;DHT22;33721;48.852;9.936;2023-12-20T05:28:11;4.40;99.90
47961;DHT22;33721;48.852;9.936;2023-12-20T05:30:36;4.40;99.90
47961;DHT22;33721;48.852;9.936;2023-12-20T05:33:02;4.40;99.90
47961;DHT22;33721;48.852;9.936;2023-12-20T05:35:28;4.40;99.90
47961;DHT22;33721;48.852;9.936;2023-12-20T05:37:53;4.40;99.90
47961;DHT22;33721;48.852;9.936;2023-12-20T05:40:19;4.40;99.90
47961;DHT22;33721;48.852;9.936;2023-12-20T05:42:44;4.40;99.90
47961;DHT22;33721;48.852;9.936;2023-12-20T05:45:10;4.40;99.90
47961;DHT22;33721;48.852;9.936;2023-12-20T05:47:36;4.40;99.90
47961;DHT22;33721;48.852;9.936;2023-12-20T05:50:02;4.40;99.90
47961;DHT22;33721;48.852;9.936;2023-12-20T05:52:27;4.50;99.90
47961;DHT22;33721;48.852;9.936;2023-12-20T05:54:53;4.50;99.90
47961;DHT22;33721;48.852;9.936;2023-12-20T05:57:19;4.40;99.90
47961;DHT22;33721;48.852;9.936;2023-12-20T05:59:44;4.50;99.90
47961;DHT22;33721;48.852;9.936;2023-12-20T06:02:10;4.40;99.90
47961;DHT22;33721;48.852;9.936;2023-12-20T06:04:35;4.40;99.90
47961;DHT22;33721;48.852;9.936;2023-12-20T06:07:02;4.50;99.90
47961;DHT22;33721;48.852;9.936;2023-12-20T06:09:27;4.50;99.90
47961;DHT22;33721;48.852;9.936;2023-12-20T06:11:53;4.50;99.90
47961;DHT22;33721;48.852;9.936;2023-12-20T06:14:19;4.50;99.90
47961;DHT22;33721;48.852;9.936;2023-12-20T06:16:45;4.40;99.90
47961;DHT22;33721;48.852;9.936;2023-12-20T06:19:11;4.50;99.90
47961;DHT22;33721;48.852;9.936;2023-12-20T06:21:37;4.50;99.90
47961;DHT22;33721;48.852;9.936;2023-12-20T06:24:02;4.50;99.90
47961;DHT22;33721;48.852;9.936;2023-12-20T06:26:28;4.50;99.90
47961;DHT22;33721;48.852;9.936;2023-12-20T06:28:54;4.50;99.90
47961;DHT22;33721;48.852;9.936;2023-12-20T06:31:20;4.50;99.90
47961;DHT22;33721;48.852;9.936;2023-12-20T06:33:46;4.50;99.90
47961;DHT22;33721;48.852;9.936;2023-12-20T06:36:12;4.40;99.90
47961;DHT22;33721;48.852;9.936;2023-12-20T06:38:38;4.40;99.90
47961;DHT22;33721;48.852;9.936;2023-12-20T06:41:04;4.40;99.90
47961;DHT22;33721;48.852;9.936;2023-12-20T06:43:30;4.50;99.90
47961;DHT22;33721;48.852;9.936;2023-12-20T06:45:56;4.50;99.90
47961;DHT22;33721;48.852;9.936;2023-12-20T06:48:22;4.50;99.90
47961;DHT22;33721;48.852;9.936;2023-12-20T06:50:47;4.50;99.90
47961;DHT22;33721;48.852;9.936;2023-12-20T06:53:13;4.50;99.90
47961;DHT22;33721;48.852;9.936;2023-12-20T06:55:39;4.50;99.90
47961;DHT22;33721;48.852;9.936;2023-12-20T06:58:04;4.50;99.90
47961;DHT22;33721;48.852;9.936;2023-12-20T07:00:30;4.50;99.90
47961;DHT22;33721;48.852;9.936;2023-12-20T07:02:56;4.50;99.90
47961;DHT22;33721;48.852;9.936;2023-12-20T07:05:22;4.50;99.90
47961;DHT22;33721;48.852;9.936;2023-12-20T07:07:47;4.50;99.90
47961;DHT22;33721;48.852;9.936;2023-12-20T07:10:13;4.50;99.90
47961;DHT22;33721;48.852;9.936;2023-12-20T07:12:39;4.50;99.90
47961;DHT22;33721;48.852;9.936;2023-12-20T07:15:05;4.60;99.90
47961;DHT22;33721;48.852;9.936;2023-12-20T07:17:34;4.60;99.90
47961;DHT22;33721;48.852;9.936;2023-12-20T07:20:00;4.60;99.90
47961;DHT22;33721;48.852;9.936;2023-12-20T07:22:29;4.60;99.90
47961;DHT22;33721;48.852;9.936;2023-12-20T07:24:57;4.60;99.90
47961;DHT22;33721;48.852;9.936;2023-12-20T07:27:23;4.60;99.90
47961;DHT22;33721;48.852;9.936;2023-12-20T07:29:48;4.60;99.90
47961;DHT22;33721;48.852;9.936;2023-12-20T07:32:14;4.60;99.90
47961;DHT22;33721;48.852;9.936;2023-12-20T07:34:40;4.60;99.90
47961;DHT22;33721;48.852;9.936;2023-12-20T07:37:05;4.60;99.90
47961;DHT22;33721;48.852;9.936;2023-12-20T07:39:31;4.70;99.90
47961;DHT22;33721;48.852;9.936;2023-12-20T07:41:56;4.70;99.90
47961;DHT22;33721;48.852;9.936;2023-12-20T07:44:22;4.70;99.90
47961;DHT22;33721;48.852;9.936;2023-12-20T07:46:48;4.70;99.90
47961;DHT22;33721;48.852;9.936;2023-12-20T07:49:14;4.70;99.90
47961;DHT22;33721;48.852;9.936;2023-12-20T07:51:39;4.80;99.90
47961;DHT22;33721;48.852;9.936;2023-12-20T07:54:05;4.70;99.90
47961;DHT22;33721;48.852;9.936;2023-12-20T07:56:31;4.70;99.90
47961;DHT22;33721;48.852;9.936;2023-12-20T07:58:56;4.70;99.90
47961;DHT22;33721;48.852;9.936;2023-12-20T08:01:22;4.80;99.90
47961;DHT22;33721;48.852;9.936;2023-12-20T08:03:49;4.80;99.90
47961;DHT22;33721;48.852;9.936;2023-12-20T08:06:14;4.80;99.90
47961;DHT22;33721;48.852;9.936;2023-12-20T08:08:42;4.80;99.90
47961;DHT22;33721;48.852;9.936;2023-12-20T08:11:08;4.80;99.90
47961;DHT22;33721;48.852;9.936;2023-12-20T08:13:34;4.80;99.90
47961;DHT22;33721;48.852;9.936;2023-12-20T08:15:59;4.90;99.90
47961;DHT22;33721;48.852;9.936;2023-12-20T08:18:25;4.90;99.90
47961;DHT22;33721;48.852;9.936;2023-12-20T08:20:51;4.90;99.90
47961;DHT22;33721;48.852;9.936;2023-12-20T08:23:19;4.90;99.90
47961;DHT22;33721;48.852;9.936;2023-12-20T08:25:46;4.90;99.90
47961;DHT22;33721;48.852;9.936;2023-12-20T08:28:12;4.90;99.90
47961;DHT22;33721;48.852;9.936;2023-12-20T08:30:38;4.90;99.90
47961;DHT22;33721;48.852;9.936;2023-12-20T08:33:04;4.90;99.90
47961;DHT22;33721;48.852;9.936;2023-12-20T08:35:29;4.90;99.90
47961;DHT22;33721;48.852;9.936;2023-12-20T08:37:55;4.90;99.90
47961;DHT22;33721;48.852;9.936;2023-12-20T08:40:21;4.90;99.90
47961;DHT22;33721;48.852;9.936;2023-12-20T08:42:47;4.90;99.90
47961;DHT22;33721;48.852;9.936;2023-12-20T08:45:12;4.90;99.90
47961;DHT22;33721;48.852;9.936;2023-12-20T08:47:38;4.80;99.90
47961;DHT22;33721;48.852;9.936;2023-12-20T08:50:04;4.90;99.90
47961;DHT22;33721;48.852;9.936;2023-12-20T08:52:30;4.90;99.90
47961;DHT22;33721;48.852;9.936;2023-12-20T08:54:56;4.90;99.90
47961;DHT22;33721;48.852;9.936;2023-12-20T08:57:22;4.90;99.90
47961;DHT22;33721;48.852;9.936;2023-12-20T08:59:49;4.90;99.90
47961;DHT22;33721;48.852;9.936;2023-12-20T09:02:15;4.90;99.90
47961;DHT22;33721;48.852;9.936;2023-12-20T09:04:41;4.90;99.90
47961;DHT22;33721;48.852;9.936;2023-12-20T09:07:07;4.80;99.90
47961;DHT22;33721;48.852;9.936;2023-12-20T09:09:33;4.80;99.90
47961;DHT22;33721;48.852;9.936;2023-12-20T09:11:59;4.80;99.90
47961;DHT22;33721;48.852;9.936;2023-12-20T09:14:24;4.90;99.90
47961;DHT22;33721;48.852;9.936;2023-12-20T09:16:50;4.80;99.90
47961;DHT22;33721;48.852;9.936;2023-12-20T09:19:17;4.80;99.90
47961;DHT22;33721;48.852;9.936;2023-12-20T09:21:43;4.80;99.90
47961;DHT22;33721;48.852;9.936;2023-12-20T09:24:09;4.80;99.90
47961;DHT22;33721;48.852;9.936;2023-12-20T09:26:34;4.80;99.90
47961;DHT22;33721;48.852;9.936;2023-12-20T09:29:00;4.80;99.90
47961;DHT22;33721;48.852;9.936;2023-12-20T09:31:26;4.80;99.90
47961;DHT22;33721;48.852;9.936;2023-12-20T09:33:52;4.90;99.90
47961;DHT22;33721;48.852;9.936;2023-12-20T09:36:17;4.90;99.90
47961;DHT22;33721;48.852;9.936;2023-12-20T09:38:43;4.90;99.90
47961;DHT22;33721;48.852;9.936;2023-12-20T09:41:09;4.90;99.90
47961;DHT22;33721;48.852;9.936;2023-12-20T09:43:37;5.00;99.90
47961;DHT22;33721;48.852;9.936;2023-12-20T09:46:05;4.90;99.90
47961;DHT22;33721;48.852;9.936;2023-12-20T09:48:33;4.90;99.90
47961;DHT22;33721;48.852;9.936;2023-12-20T09:50:59;4.80;99.90
47961;DHT22;33721;48.852;9.936;2023-12-20T09:53:25;4.80;99.90
47961;DHT22;33721;48.852;9.936;2023-12-20T09:55:58;4.70;99.90
47961;DHT22;33721;48.852;9.936;2023-12-20T09:58:25;4.70;99.90
47961;DHT22;33721;48.852;9.936;2023-12-20T10:00:52;4.80;99.90
47961;DHT22;33721;48.852;9.936;2023-12-20T10:03:23;4.80;99.90
47961;DHT22;33721;48.852;9.936;2023-12-20T10:05:53;4.80;99.90
47961;DHT22;33721;48.852;9.936;2023-12-20T10:08:21;4.90;99.90
47961;DHT22;33721;48.852;9.936;2023-12-20T10:10:47;5.20;99.90
47961;DHT22;33721;48.852;9.936;2023-12-20T10:13:15;5.30;99.90
47961;DHT22;33721;48.852;9.936;2023-12-20T10:15:41;5.50;99.90
47961;DHT22;33721;48.852;9.936;2023-12-20T10:18:07;5.50;99.90
47961;DHT22;33721;48.852;9.936;2023-12-20T10:20:33;5.40;99.90
47961;DHT22;33721;48.852;9.936;2023-12-20T10:22:59;5.40;99.90
47961;DHT22;33721;48.852;9.936;2023-12-20T10:25:26;5.40;99.90
47961;DHT22;33721;48.852;9.936;2023-12-20T10:28:12;5.30;99.90
47961;DHT22;33721;48.852;9.936;2023-12-20T10:30:39;5.30;99.90
47961;DHT22;33721;48.852;9.936;2023-12-20T10:33:06;5.20;99.90
47961;DHT22;33721;48.852;9.936;2023-12-20T10:35:33;5.10;99.90
47961;DHT22;33721;48.852;9.936;2023-12-20T10:38:02;5.10;99.90
47961;DHT22;33721;48.852;9.936;2023-12-20T10:40:29;5.20;99.90
47961;DHT22;33721;48.852;9.936;2023-12-20T10:42:56;5.10;99.90
47961;DHT22;33721;48.852;9.936;2023-12-20T10:45:22;5.10;99.90
47961;DHT22;33721;48.852;9.936;2023-12-20T10:47:50;5.40;99.90
47961;DHT22;33721;48.852;9.936;2023-12-20T10:50:17;5.50;99.90
47961;DHT22;33721;48.852;9.936;2023-12-20T10:52:44;5.50;99.90
47961;DHT22;33721;48.852;9.936;2023-12-20T10:55:11;5.50;99.90
47961;DHT22;33721;48.852;9.936;2023-12-20T10:57:37;5.40;99.90
47961;DHT22;33721;48.852;9.936;2023-12-20T11:00:03;5.40;99.90
47961;DHT22;33721;48.852;9.936;2023-12-20T11:02:32;5.40;99.90
47961;DHT22;33721;48.852;9.936;2023-12-20T11:08:20;5.40;99.90
47961;DHT22;33721;48.852;9.936;2023-12-20T11:11:20;5.30;99.90
47961;DHT22;33721;48.852;9.936;2023-12-20T11:14:00;5.30;99.90
47961;DHT22;33721;48.852;9.936;2023-12-20T11:16:27;5.30;99.90
47961;DHT22;33721;48.852;9.936;2023-12-20T11:18:53;5.30;99.90
47961;DHT22;33721;48.852;9.936;2023-12-20T11:21:19;5.30;99.90
47961;DHT22;33721;48.852;9.936;2023-12-20T11:23:45;5.30;99.90
47961;DHT22;33721;48.852;9.936;2023-12-20T11:26:11;5.30;99.90
47961;DHT22;33721;48.852;9.936;2023-12-20T11:28:36;5.30;99.90
47961;DHT22;33721;48.852;9.936;2023-12-20T11:31:02;5.50;99.90
47961;DHT22;33721;48.852;9.936;2023-12-20T11:33:36;5.80;99.90
47961;DHT22;33721;48.852;9.936;2023-12-20T11:36:01;5.70;99.90
47961;DHT22;33721;48.852;9.936;2023-12-20T11:38:38;5.60;99.90
47961;DHT22;33721;48.852;9.936;2023-12-20T11:41:06;5.50;99.90
47961;DHT22;33721;48.852;9.936;2023-12-20T11:43:34;5.40;99.90
47961;DHT22;33721;48.852;9.936;2023-12-20T11:46:04;5.40;99.90
47961;DHT22;33721;48.852;9.936;2023-12-20T11:48:31;5.40;99.90
47961;DHT22;33721;48.852;9.936;2023-12-20T11:50:57;5.40;99.90
47961;DHT22;33721;48.852;9.936;2023-12-20T11:53:23;5.40;99.90
47961;DHT22;33721;48.852;9.936;2023-12-20T11:55:51;5.30;99.90
47961;DHT22;33721;48.852;9.936;2023-12-20T11:58:17;5.30;99.90
47961;DHT22;33721;48.852;9.936;2023-12-20T12:00:43;5.30;99.90
47961;DHT22;33721;48.852;9.936;2023-12-20T12:03:09;5.20;99.90
47961;DHT22;33721;48.852;9.936;2023-12-20T12:05:35;5.10;99.90
47961;DHT22;33721;48.852;9.936;2023-12-20T12:08:03;5.10;99.90
47961;DHT22;33721;48.852;9.936;2023-12-20T12:10:30;5.00;99.90
47961;DHT22;33721;48.852;9.936;2023-12-20T12:12:56;5.00;99.90
47961;DHT22;33721;48.852;9.936;2023-12-20T12:15:22;4.90;99.90
47961;DHT22;33721;48.852;9.936;2023-12-20T12:17:56;4.90;99.90
47961;DHT22;33721;48.852;9.936;2023-12-20T12:20:23;4.90;99.90
47961;DHT22;33721;48.852;9.936;2023-12-20T12:22:59;4.70;99.90
47961;DHT22;33721;48.852;9.936;2023-12-20T12:25:25;4.70;99.90
47961;DHT22;33721;48.852;9.936;2023-12-20T12:27:51;4.70;99.90
47961;DHT22;33721;48.852;9.936;2023-12-20T12:30:18;4.70;99.90
47961;DHT22;33721;48.852;9.936;2023-12-20T12:32:47;4.70;99.90
47961;DHT22;33721;48.852;9.936;2023-12-20T12:35:14;4.70;99.90
47961;DHT22;33721;48.852;9.936;2023-12-20T12:37:41;4.60;99.90
47961;DHT22;33721;48.852;9.936;2023-12-20T12:40:14;4.70;99.90
47961;DHT22;33721;48.852;9.936;2023-12-20T12:42:41;4.60;99.90
47961;DHT22;33721;48.852;9.936;2023-12-20T12:45:07;4.60;99.90
47961;DHT22;33721;48.852;9.936;2023-12-20T12:47:34;4.60;99.90
47961;DHT22;33721;48.852;9.936;2023-12-20T12:50:00;4.60;99.90
47961;DHT22;33721;48.852;9.936;2023-12-20T12:52:25;4.60;99.90
47961;DHT22;33721;48.852;9.936;2023-12-20T12:54:53;4.60;99.90
47961;DHT22;33721;48.852;9.936;2023-12-20T12:57:19;4.60;99.90
47961;DHT22;33721;48.852;9.936;2023-12-20T12:59:45;4.60;99.90
47961;DHT22;33721;48.852;9.936;2023-12-20T13:02:15;4.50;99.90
47961;DHT22;33721;48.852;9.936;2023-12-20T13:04:41;4.50;99.90
47961;DHT22;33721;48.852;9.936;2023-12-20T13:07:07;4.50;99.90
47961;DHT22;33721;48.852;9.936;2023-12-20T13:09:36;4.50;99.90
47961;DHT22;33721;48.852;9.936;2023-12-20T13:12:01;4.50;99.90
47961;DHT22;33721;48.852;9.936;2023-12-20T13:14:30;4.50;99.90
47961;DHT22;33721;48.852;9.936;2023-12-20T13:16:56;4.50;99.90
47961;DHT22;33721;48.852;9.936;2023-12-20T13:19:21;4.50;99.90
47961;DHT22;33721;48.852;9.936;2023-12-20T13:21:47;4.60;99.90
47961;DHT22;33721;48.852;9.936;2023-12-20T13:24:14;4.60;99.90
47961;DHT22;33721;48.852;9.936;2023-12-20T13:26:39;4.60;99.90
47961;DHT22;33721;48.852;9.936;2023-12-20T13:29:05;4.70;99.90
47961;DHT22;33721;48.852;9.936;2023-12-20T13:31:31;4.60;99.90
47961;DHT22;33721;48.852;9.936;2023-12-20T13:33:56;4.60;99.90
47961;DHT22;33721;48.852;9.936;2023-12-20T13:36:22;4.70;99.90
47961;DHT22;33721;48.852;9.936;2023-12-20T13:38:48;4.70;99.90
47961;DHT22;33721;48.852;9.936;2023-12-20T13:41:13;4.70;99.90
47961;DHT22;33721;48.852;9.936;2023-12-20T13:43:39;4.70;99.90
47961;DHT22;33721;48.852;9.936;2023-12-20T13:46:04;4.60;99.90
47961;DHT22;33721;48.852;9.936;2023-12-20T13:48:30;4.70;99.90
47961;DHT22;33721;48.852;9.936;2023-12-20T13:50:56;4.60;99.90
47961;DHT22;33721;48.852;9.936;2023-12-20T13:53:22;4.60;99.90
47961;DHT22;33721;48.852;9.936;2023-12-20T13:55:47;4.60;99.90
47961;DHT22;33721;48.852;9.936;2023-12-20T13:58:13;4.60;99.90
47961;DHT22;33721;48.852;9.936;2023-12-20T14:00:39;4.60;99.90
47961;DHT22;33721;48.852;9.936;2023-12-20T14:03:05;4.60;99.90
47961;DHT22;33721;48.852;9.936;2023-12-20T14:05:31;4.50;99.90
47961;DHT22;33721;48.852;9.936;2023-12-20T14:07:57;4.60;99.90
47961;DHT22;33721;48.852;9.936;2023-12-20T14:10:23;4.50;99.90
47961;DHT22;33721;48.852;9.936;2023-12-20T14:12:49;4.60;99.90
47961;DHT22;33721;48.852;9.936;2023-12-20T14:15:14;4.50;99.90
47961;DHT22;33721;48.852;9.936;2023-12-20T14:17:40;4.50;99.90
47961;DHT22;33721;48.852;9.936;2023-12-20T14:20:08;4.50;99.90
47961;DHT22;33721;48.852;9.936;2023-12-20T14:22:34;4.50;99.90
47961;DHT22;33721;48.852;9.936;2023-12-20T14:25:00;4.50;99.90
47961;DHT22;33721;48.852;9.936;2023-12-20T14:27:26;4.50;99.90
47961;DHT22;33721;48.852;9.936;2023-12-20T14:29:56;4.50;99.90
47961;DHT22;33721;48.852;9.936;2023-12-20T14:32:24;4.50;99.90
47961;DHT22;33721;48.852;9.936;2023-12-20T14:34:52;4.50;99.90
47961;DHT22;33721;48.852;9.936;2023-12-20T14:37:17;4.50;99.90
47961;DHT22;33721;48.852;9.936;2023-12-20T14:39:43;4.50;99.90
47961;DHT22;33721;48.852;9.936;2023-12-20T14:42:08;4.50;99.90
47961;DHT22;33721;48.852;9.936;2023-12-20T14:44:43;4.40;99.90
47961;DHT22;33721;48.852;9.936;2023-12-20T14:47:08;4.40;99.90
47961;DHT22;33721;48.852;9.936;2023-12-20T14:49:34;4.30;99.90
47961;DHT22;33721;48.852;9.936;2023-12-20T14:52:01;4.20;99.90
47961;DHT22;33721;48.852;9.936;2023-12-20T14:54:27;4.20;99.90
47961;DHT22;33721;48.852;9.936;2023-12-20T14:56:52;4.20;99.90
47961;DHT22;33721;48.852;9.936;2023-12-20T14:59:18;4.10;99.90
47961;DHT22;33721;48.852;9.936;2023-12-20T15:01:44;4.10;99.90
47961;DHT22;33721;48.852;9.936;2023-12-20T15:04:10;4.00;99.90
47961;DHT22;33721;48.852;9.936;2023-12-20T15:06:36;4.00;99.90
47961;DHT22;33721;48.852;9.936;2023-12-20T15:09:02;3.90;99.90
47961;DHT22;33721;48.852;9.936;2023-12-20T15:11:33;3.80;99.90
47961;DHT22;33721;48.852;9.936;2023-12-20T15:13:58;3.80;99.90
47961;DHT22;33721;48.852;9.936;2023-12-20T15:16:26;3.80;99.90
47961;DHT22;33721;48.852;9.936;2023-12-20T15:18:52;3.80;99.90
47961;DHT22;33721;48.852;9.936;2023-12-20T15:21:19;3.70;99.90
47961;DHT22;33721;48.852;9.936;2023-12-20T15:23:46;3.80;99.90
47961;DHT22;33721;48.852;9.936;2023-12-20T15:26:21;3.80;99.90
47961;DHT22;33721;48.852;9.936;2023-12-20T15:28:47;3.80;99.90
47961;DHT22;33721;48.852;9.936;2023-12-20T15:31:13;3.80;99.90
47961;DHT22;33721;48.852;9.936;2023-12-20T15:33:39;3.80;99.90
47961;DHT22;33721;48.852;9.936;2023-12-20T15:36:05;3.80;99.90
47961;DHT22;33721;48.852;9.936;2023-12-20T15:38:31;3.80;99.90
47961;DHT22;33721;48.852;9.936;2023-12-20T15:40:57;3.80;99.90
47961;DHT22;33721;48.852;9.936;2023-12-20T15:43:22;3.70;99.90